createdAt,value
2023-04-16T00:01:02.672Z,100026.09
2023-04-16T00:04:06.153Z,100024.44
2023-04-16T00:07:09.376Z,100024.25
2023-04-16T00:10:12.273Z,100028.88
2023-04-16T00:13:15.275Z,100026.00
2023-04-16T00:16:18.546Z,100029.59
2023-04-16T00:19:22.457Z,100026.16
2023-04-16T00:22:25.046Z,100021.69
2023-04-16T00:25:27.823Z,100025.75
2023-04-16T00:28:30.637Z,100020.47
2023-04-16T00:31:34.484Z,100025.41
2023-04-16T00:34:39.076Z,100023.09
2023-04-16T00:37:41.765Z,100028.25
2023-04-16T00:40:45.727Z,100033.06
2023-04-16T00:43:48.205Z,100036.66
2023-04-16T00:46:51.664Z,100032.25
2023-04-16T00:49:54.657Z,100028.41
2023-04-16T00:52:57.550Z,100026.16
2023-04-16T00:56:02.518Z,100028.19
2023-04-16T00:59:06.256Z,100022.53
2023-04-16T01:02:09.107Z,100019.78
2023-04-16T01:05:11.833Z,100031.06
2023-04-16T01:08:22.097Z,100033.69
2023-04-16T01:11:25.004Z,100037.44
2023-04-16T01:14:27.983Z,100043.16
2023-04-16T01:17:30.545Z,100031.31
2023-04-16T01:20:36.379Z,100040.78
2023-04-16T01:23:39.304Z,100047.38
2023-04-16T01:26:42.060Z,100040.28
2023-04-16T01:29:44.845Z,100036.72
2023-04-16T01:32:48.257Z,100047.28
2023-04-16T01:35:51.254Z,100050.50
2023-04-16T01:38:54.058Z,100044.75
2023-04-16T01:41:57.224Z,100038.75
2023-04-16T01:44:59.825Z,100047.88
2023-04-16T01:48:03.961Z,100049.75
2023-04-16T01:51:06.862Z,100041.13
2023-04-16T01:54:09.829Z,100050.59
2023-04-16T01:57:12.456Z,100038.72
2023-04-16T02:00:15.554Z,100040.41
2023-04-16T02:03:24.932Z,100040.63
2023-04-16T02:06:28.647Z,100051.66
2023-04-16T02:09:35.497Z,100049.13
2023-04-16T02:12:40.820Z,100055.47
2023-04-16T02:15:47.970Z,100061.63
2023-04-16T02:18:53.307Z,100064.84
2023-04-16T02:21:58.495Z,100062.78
2023-04-16T02:25:01.207Z,100064.34
2023-04-16T02:28:03.821Z,100064.22
2023-04-16T02:31:11.544Z,100063.94
2023-04-16T02:34:19.243Z,100062.16
2023-04-16T02:37:21.862Z,100063.38
2023-04-16T02:40:24.663Z,100060.84
2023-04-16T02:43:27.166Z,100059.88
2023-04-16T02:46:31.724Z,100060.50
2023-04-16T02:49:35.881Z,100052.81
2023-04-16T02:52:38.504Z,100056.63
2023-04-16T02:55:41.386Z,100050.13
2023-04-16T02:58:43.907Z,100058.56
2023-04-16T03:01:46.889Z,100063.38
2023-04-16T03:04:50.038Z,100073.41
2023-04-16T03:07:56.709Z,100073.16
2023-04-16T03:11:01.675Z,100063.06
2023-04-16T03:14:04.487Z,100062.56
2023-04-16T03:17:07.224Z,100068.13
2023-04-16T03:20:10.371Z,100069.03
2023-04-16T03:23:14.176Z,100074.53
2023-04-16T03:26:16.905Z,100085.31
2023-04-16T03:29:19.595Z,100095.09
2023-04-16T03:32:23.596Z,100101.59
2023-04-16T03:35:26.247Z,100112.66
2023-04-16T03:38:28.858Z,100113.88
2023-04-16T03:41:33.653Z,100116.56
2023-04-16T03:44:36.682Z,100122.78
2023-04-16T03:47:39.301Z,100122.44
2023-04-16T03:50:46.238Z,100125.69
2023-04-16T03:53:51.105Z,100135.44
2023-04-16T03:56:54.548Z,100137.97
2023-04-16T03:59:57.094Z,100115.56
2023-04-16T04:03:02.664Z,100132.47
2023-04-16T04:06:09.429Z,100129.09
2023-04-16T04:09:13.043Z,100120.00
2023-04-16T04:12:16.008Z,100128.91
2023-04-16T04:15:19.750Z,100124.69
2023-04-16T04:18:23.093Z,100118.31
2023-04-16T04:21:26.010Z,100134.66
2023-04-16T04:24:28.797Z,100133.25
2023-04-16T04:27:31.758Z,100131.38
2023-04-16T04:30:35.916Z,100143.75
2023-04-16T04:33:38.533Z,100160.31
2023-04-16T04:36:42.256Z,100157.44
2023-04-16T04:39:45.310Z,100149.13
2023-04-16T04:42:49.295Z,100151.88
2023-04-16T04:45:52.094Z,100145.53
2023-04-16T04:48:54.959Z,100162.53
2023-04-16T04:51:57.752Z,100157.75
2023-04-16T04:55:00.774Z,100155.09
2023-04-16T04:58:06.455Z,100160.19
2023-04-16T05:01:09.397Z,100155.19
2023-04-16T05:04:13.116Z,100161.19
2023-04-16T05:07:16.354Z,100162.41
2023-04-16T05:10:19.360Z,100159.53
2023-04-16T05:13:22.193Z,100141.84
2023-04-16T05:16:24.826Z,100146.28
2023-04-16T05:19:27.685Z,100149.44
2023-04-16T05:22:30.221Z,100155.91
2023-04-16T05:25:32.891Z,100158.91
2023-04-16T05:28:35.677Z,100160.25
2023-04-16T05:31:39.634Z,100185.94
2023-04-16T05:34:42.197Z,100187.84
2023-04-16T05:37:44.673Z,100184.47
2023-04-16T05:40:47.396Z,100184.69
2023-04-16T05:43:50.067Z,100191.91
2023-04-16T05:46:52.919Z,100193.34
2023-04-16T05:49:55.810Z,100189.75
2023-04-16T05:52:58.561Z,100201.50
2023-04-16T05:56:01.097Z,100201.84
2023-04-16T05:59:04.599Z,100193.78
2023-04-16T06:02:07.559Z,100209.63
2023-04-16T06:05:10.152Z,100200.16
2023-04-16T06:08:12.873Z,100189.19
2023-04-16T06:11:15.510Z,100195.53
2023-04-16T06:14:18.203Z,100196.31
2023-04-16T06:17:21.395Z,100180.38
2023-04-16T06:20:24.470Z,100196.00
2023-04-16T06:23:27.070Z,100191.78
2023-04-16T06:26:29.728Z,100181.66
2023-04-16T06:29:40.642Z,100192.94
2023-04-16T06:32:44.757Z,100192.16
2023-04-16T06:35:47.423Z,100185.44
2023-04-16T06:38:50.086Z,100181.88
2023-04-16T06:41:52.882Z,100185.72
2023-04-16T06:44:55.526Z,100181.59
2023-04-16T06:48:04.334Z,100187.22
2023-04-16T06:51:07.423Z,100190.66
2023-04-16T06:54:10.510Z,100171.13
2023-04-16T06:57:13.022Z,100188.44
2023-04-16T07:00:15.949Z,100192.66
2023-04-16T07:03:18.643Z,100194.31
2023-04-16T07:06:21.399Z,100192.94
2023-04-16T07:09:24.026Z,100182.25
2023-04-16T07:12:27.287Z,100188.94
2023-04-16T07:15:30.079Z,100193.69
2023-04-16T07:18:33.101Z,100179.22
2023-04-16T07:21:36.458Z,100183.22
2023-04-16T07:24:39.525Z,100183.22
2023-04-16T07:27:44.465Z,100182.53
2023-04-16T07:30:47.511Z,100179.53
2023-04-16T07:33:50.524Z,100189.00
2023-04-16T07:36:53.146Z,100187.84
2023-04-16T07:39:57.770Z,100181.28
2023-04-16T07:43:00.539Z,100183.66
2023-04-16T07:46:04.272Z,100183.84
2023-04-16T07:49:07.236Z,100182.91
2023-04-16T07:52:09.906Z,100182.00
2023-04-16T07:55:13.707Z,100194.63
2023-04-16T07:58:16.322Z,100190.22
2023-04-16T08:01:18.958Z,100191.53
2023-04-16T08:04:25.734Z,100180.25
2023-04-16T08:07:28.818Z,100188.56
2023-04-16T08:10:31.593Z,100178.19
2023-04-16T08:13:34.212Z,100185.91
2023-04-16T08:16:37.037Z,100183.28
2023-04-16T08:19:40.051Z,100190.00
2023-04-16T08:22:43.208Z,100196.03
2023-04-16T08:25:46.095Z,100192.56
2023-04-16T08:28:49.648Z,100195.09
2023-04-16T08:31:53.811Z,100200.78
2023-04-16T08:34:57.309Z,100204.09
2023-04-16T08:38:02.410Z,100198.75
2023-04-16T08:41:09.550Z,100201.66
2023-04-16T08:44:20.510Z,100206.41
2023-04-16T08:47:25.689Z,100207.13
2023-04-16T08:50:29.924Z,100208.44
2023-04-16T08:53:54.651Z,100205.16
2023-04-16T08:56:59.150Z,100200.66
2023-04-16T09:00:02.625Z,100204.41
2023-04-16T09:03:06.928Z,100206.19
2023-04-16T09:06:10.073Z,100206.66
2023-04-16T09:09:14.004Z,100210.75
2023-04-16T09:12:17.590Z,100219.03
2023-04-16T09:15:22.162Z,100221.50
2023-04-16T09:18:24.849Z,100229.19
2023-04-16T09:21:28.108Z,100227.44
2023-04-16T09:24:31.411Z,100229.72
2023-04-16T09:27:34.104Z,100226.13
2023-04-16T09:30:37.643Z,100229.22
2023-04-16T09:33:41.186Z,100235.00
2023-04-16T09:36:43.798Z,100238.53
2023-04-16T09:39:56.866Z,100232.84
2023-04-16T09:43:00.893Z,100237.13
2023-04-16T09:46:08.108Z,100236.00
2023-04-16T09:49:15.592Z,100243.31
2023-04-16T09:52:23.192Z,100245.50
2023-04-16T09:55:27.808Z,100240.63
2023-04-16T09:58:30.869Z,100230.47
2023-04-16T10:01:34.046Z,100231.94
2023-04-16T10:04:53.093Z,100235.78
2023-04-16T10:08:00.600Z,100224.25
2023-04-16T10:11:03.285Z,100216.38
2023-04-16T10:14:06.332Z,100207.91
2023-04-16T10:17:10.047Z,100185.03
2023-04-16T10:20:14.226Z,100194.53
2023-04-16T10:23:20.124Z,100190.22
2023-04-16T10:26:22.881Z,100177.09
2023-04-16T10:29:27.488Z,100189.47
2023-04-16T10:32:32.041Z,100184.16
2023-04-16T10:35:40.734Z,100172.53
2023-04-16T10:38:48.358Z,100173.00
2023-04-16T10:42:06.332Z,100169.44
2023-04-16T10:45:11.274Z,100162.69
2023-04-16T10:48:17.178Z,100155.75
2023-04-16T10:51:36.658Z,100152.50
2023-04-16T10:54:40.938Z,100153.06
2023-04-16T10:57:43.902Z,100151.78
2023-04-16T11:00:53.474Z,100142.00
2023-04-16T11:03:56.561Z,100140.34
2023-04-16T11:07:17.990Z,100150.00
2023-04-16T11:10:20.734Z,100129.81
2023-04-16T11:13:23.864Z,100129.72
2023-04-16T11:16:26.732Z,100128.03
2023-04-16T11:19:29.518Z,100137.00
2023-04-16T11:22:36.712Z,100143.38
2023-04-16T11:25:39.396Z,100145.75
2023-04-16T11:28:41.962Z,100138.72
2023-04-16T11:31:55.378Z,100144.16
2023-04-16T11:34:59.942Z,100146.63
2023-04-16T11:38:02.603Z,100139.44
2023-04-16T11:41:05.218Z,100141.72
2023-04-16T11:44:25.531Z,100135.84
2023-04-16T11:47:30.843Z,100149.66
2023-04-16T11:50:33.804Z,100147.97
2023-04-16T11:53:37.082Z,100146.03
2023-04-16T11:56:46.834Z,100132.88
2023-04-16T12:00:01.361Z,100133.41
2023-04-16T12:03:15.628Z,100145.78
2023-04-16T12:06:18.488Z,100148.47
2023-04-16T12:09:25.461Z,100140.28
2023-04-16T12:12:31.456Z,100130.22
2023-04-16T12:15:46.041Z,100127.81
2023-04-16T12:19:01.283Z,100125.91
2023-04-16T12:22:04.051Z,100113.91
2023-04-16T12:25:17.753Z,100122.31
2023-04-16T12:28:38.598Z,100113.63
2023-04-16T12:31:41.601Z,100117.81
2023-04-16T12:34:51.582Z,100119.69
2023-04-16T12:37:54.047Z,100115.06
2023-04-16T12:40:57.749Z,100118.81
2023-04-16T12:44:05.185Z,100114.84
2023-04-16T12:47:07.855Z,100111.47
2023-04-16T12:50:10.966Z,100101.81
2023-04-16T12:53:13.919Z,100102.31
2023-04-16T12:56:16.860Z,100088.91
2023-04-16T12:59:19.504Z,100096.66
2023-04-16T13:02:23.025Z,100092.22
2023-04-16T13:05:25.835Z,100084.25
2023-04-16T13:08:29.210Z,100083.34
2023-04-16T13:11:32.481Z,100086.47
2023-04-16T13:14:35.318Z,100083.09
2023-04-16T13:17:38.270Z,100082.75
2023-04-16T13:20:41.325Z,100087.94
2023-04-16T13:23:44.108Z,100081.63
2023-04-16T13:26:46.860Z,100083.31
2023-04-16T13:29:50.000Z,100079.63
2023-04-16T13:32:56.457Z,100065.50
2023-04-16T13:35:59.170Z,100072.13
2023-04-16T13:39:05.071Z,100067.56
2023-04-16T13:42:09.205Z,100067.56
2023-04-16T13:45:12.197Z,100071.53
2023-04-16T13:48:15.184Z,100056.00
2023-04-16T13:51:17.968Z,100063.22
2023-04-16T13:54:20.593Z,100055.66
2023-04-16T13:57:23.509Z,100065.69
2023-04-16T14:00:27.334Z,100053.81
2023-04-16T14:03:29.975Z,100054.56
2023-04-16T14:06:33.801Z,100056.94
2023-04-16T14:09:36.973Z,100045.56
2023-04-16T14:12:40.159Z,100049.69
2023-04-16T14:15:43.519Z,100062.59
2023-04-16T14:18:47.777Z,100053.19
2023-04-16T14:21:50.621Z,100058.06
2023-04-16T14:24:55.602Z,100049.13
2023-04-16T14:28:01.626Z,100057.53
2023-04-16T14:31:04.993Z,100043.84
2023-04-16T14:34:07.756Z,100052.41
2023-04-16T14:37:10.365Z,100049.59
2023-04-16T14:40:13.300Z,100046.13
2023-04-16T14:43:16.115Z,100051.25
2023-04-16T14:46:19.437Z,100050.38
2023-04-16T14:49:22.959Z,100060.94
2023-04-16T14:52:26.218Z,100050.38
2023-04-16T14:55:28.769Z,100054.97
2023-04-16T14:58:31.637Z,100046.97
2023-04-16T15:01:36.028Z,100049.59
2023-04-16T15:04:38.778Z,100037.50
2023-04-16T15:07:41.936Z,100041.94
2023-04-16T15:10:47.256Z,100045.13
2023-04-16T15:13:50.778Z,100030.91
2023-04-16T15:16:54.144Z,100035.50
2023-04-16T15:19:56.901Z,100038.09
2023-04-16T15:22:59.726Z,100028.19
2023-04-16T15:26:02.416Z,100039.75
2023-04-16T15:29:05.489Z,100042.59
2023-04-16T15:32:08.752Z,100045.00
2023-04-16T15:35:13.958Z,100040.91
2023-04-16T15:38:16.988Z,100038.34
2023-04-16T15:41:19.795Z,100040.50
2023-04-16T15:44:24.531Z,100038.09
2023-04-16T15:47:28.094Z,100036.44
2023-04-16T15:50:32.716Z,100048.19
2023-04-16T15:53:36.286Z,100042.78
2023-04-16T15:56:40.023Z,100039.03
2023-04-16T15:59:46.196Z,100039.97
2023-04-16T16:02:58.142Z,100047.41
2023-04-16T16:06:04.167Z,100048.41
2023-04-16T16:09:08.520Z,100052.16
2023-04-16T16:12:11.341Z,100050.47
2023-04-16T16:15:15.745Z,100052.25
2023-04-16T16:18:19.294Z,100046.19
2023-04-16T16:21:22.591Z,100053.81
2023-04-16T16:24:26.559Z,100052.16
2023-04-16T16:27:30.004Z,100053.81
2023-04-16T16:30:33.140Z,100050.91
2023-04-16T16:33:38.428Z,100054.25
2023-04-16T16:36:42.837Z,100057.19
2023-04-16T16:39:46.118Z,100055.00
2023-04-16T16:42:49.931Z,100060.00
2023-04-16T16:45:53.278Z,100059.53
2023-04-16T16:48:57.105Z,100055.91
2023-04-16T16:52:00.517Z,100061.78
2023-04-16T16:55:05.981Z,100066.03
2023-04-16T16:58:10.305Z,100069.41
2023-04-16T17:01:13.657Z,100063.38
2023-04-16T17:04:20.012Z,100071.84
2023-04-16T17:07:25.434Z,100064.66
2023-04-16T17:10:30.281Z,100066.66
2023-04-16T17:13:35.124Z,100072.38
2023-04-16T17:16:39.619Z,100074.28
2023-04-16T17:19:43.204Z,100073.50
2023-04-16T17:22:46.548Z,100077.31
2023-04-16T17:25:49.829Z,100081.06
2023-04-16T17:28:54.681Z,100079.41
2023-04-16T17:31:58.551Z,100086.94
2023-04-16T17:35:04.614Z,100076.81
2023-04-16T17:38:08.214Z,100083.28
2023-04-16T17:41:12.119Z,100088.47
2023-04-16T17:44:16.360Z,100095.81
2023-04-16T17:47:20.510Z,100092.50
2023-04-16T17:50:24.046Z,100093.19
2023-04-16T17:53:27.518Z,100092.16
2023-04-16T17:56:36.167Z,100105.53
2023-04-16T17:59:39.466Z,100113.72
2023-04-16T18:02:46.916Z,100105.03
2023-04-16T18:05:50.319Z,100104.53
2023-04-16T18:08:54.032Z,100114.75
2023-04-16T18:11:57.576Z,100115.56
2023-04-16T18:15:01.420Z,100128.94
2023-04-16T18:18:06.643Z,100118.25
2023-04-16T18:21:10.533Z,100119.25
2023-04-16T18:24:14.297Z,100123.09
2023-04-16T18:27:18.067Z,100113.91
2023-04-16T18:30:26.371Z,100116.25
2023-04-16T18:36:37.252Z,100111.56
2023-04-16T18:39:40.086Z,100114.22
2023-04-16T18:42:43.534Z,100111.03
2023-04-16T18:45:46.812Z,100108.53
2023-04-16T18:48:49.881Z,100095.34
2023-04-16T18:51:56.584Z,100102.19
2023-04-16T18:54:59.849Z,100107.22
2023-04-16T18:58:04.047Z,100106.88
2023-04-16T19:01:11.391Z,100113.56
2023-04-16T19:04:18.505Z,100099.19
2023-04-16T19:07:22.388Z,100109.88
2023-04-16T19:10:26.295Z,100094.50
2023-04-16T19:13:33.103Z,100109.22
2023-04-16T19:16:36.554Z,100112.22
2023-04-16T19:19:40.597Z,100113.19
2023-04-16T19:22:44.339Z,100118.88
2023-04-16T19:25:54.099Z,100123.16
2023-04-16T19:28:57.908Z,100103.81
2023-04-16T19:32:03.114Z,100107.34
2023-04-16T19:35:08.398Z,100103.47
2023-04-16T19:38:11.833Z,100111.81
2023-04-16T19:41:15.434Z,100103.75
2023-04-16T19:44:20.046Z,100112.41
2023-04-16T19:47:23.655Z,100108.91
2023-04-16T19:50:27.212Z,100112.69
2023-04-16T19:53:35.000Z,100105.06
2023-04-16T19:56:37.957Z,100110.38
2023-04-16T19:59:42.832Z,100095.03
2023-04-16T20:02:46.472Z,100101.69
2023-04-16T20:05:50.241Z,100095.19
2023-04-16T20:08:53.658Z,100097.69
2023-04-16T20:11:58.316Z,100094.38
2023-04-16T20:15:01.576Z,100098.72
2023-04-16T20:18:06.501Z,100093.72
2023-04-16T20:21:10.664Z,100092.69
2023-04-16T20:24:15.991Z,100096.00
2023-04-16T20:27:20.472Z,100096.00
2023-04-16T20:30:28.791Z,100094.81
2023-04-16T20:33:32.169Z,100099.84
2023-04-16T20:36:36.265Z,100097.16
2023-04-16T20:39:40.241Z,100096.16
2023-04-16T20:42:46.311Z,100084.84
2023-04-16T20:45:50.153Z,100090.38
2023-04-16T20:48:53.258Z,100085.03
2023-04-16T20:51:56.321Z,100085.00
2023-04-16T20:54:59.021Z,100092.00
2023-04-16T20:58:02.046Z,100090.66
2023-04-16T21:01:06.139Z,100088.63
2023-04-16T21:04:09.014Z,100085.00
2023-04-16T21:07:11.789Z,100089.84
2023-04-16T21:10:20.252Z,100079.13
2023-04-16T21:13:23.164Z,100088.31
2023-04-16T21:16:26.847Z,100085.66
2023-04-16T21:19:29.633Z,100093.66
2023-04-16T21:22:32.751Z,100081.00
2023-04-16T21:25:35.534Z,100071.28
2023-04-16T21:28:38.341Z,100068.63
2023-04-16T21:31:42.900Z,100073.31
2023-04-16T21:34:45.739Z,100069.78
2023-04-16T21:37:48.875Z,100066.59
2023-04-16T21:40:54.109Z,100078.22
2023-04-16T21:43:56.671Z,100077.88
2023-04-16T21:47:00.666Z,100075.66
2023-04-16T21:50:03.764Z,100069.38
2023-04-16T21:53:06.738Z,100077.34
2023-04-16T21:56:09.540Z,100066.38
2023-04-16T21:59:12.344Z,100063.34
2023-04-16T22:02:15.217Z,100066.25
2023-04-16T22:05:18.082Z,100068.59
2023-04-16T22:08:24.889Z,100069.47
2023-04-16T22:11:27.872Z,100064.56
2023-04-16T22:14:31.982Z,100057.81
2023-04-16T22:17:34.914Z,100061.09
2023-04-16T22:20:39.221Z,100053.44
2023-04-16T22:23:42.081Z,100052.47
2023-04-16T22:26:44.714Z,100046.19
2023-04-16T22:29:47.416Z,100045.97
2023-04-16T22:32:50.304Z,100045.97
2023-04-16T22:35:53.741Z,100044.50
2023-04-16T22:38:56.538Z,100038.81
2023-04-16T22:41:59.649Z,100041.09
2023-04-16T22:45:02.615Z,100041.41
2023-04-16T22:48:05.669Z,100042.34
2023-04-16T22:51:10.715Z,100029.34
2023-04-16T22:54:14.693Z,100041.34
2023-04-16T22:57:21.140Z,100024.75
2023-04-16T23:00:25.096Z,100033.03
2023-04-16T23:03:28.335Z,100032.81
2023-04-16T23:06:31.644Z,100028.94
2023-04-16T23:09:34.458Z,100028.63
2023-04-16T23:12:40.254Z,100029.13
2023-04-16T23:15:43.852Z,100021.44
2023-04-16T23:18:46.773Z,100020.16
2023-04-16T23:21:49.364Z,100018.47
2023-04-16T23:24:52.052Z,100015.16
2023-04-16T23:27:54.727Z,100010.84
2023-04-16T23:30:57.546Z,100011.00
2023-04-16T23:34:00.183Z,100012.34
2023-04-16T23:37:02.895Z,100008.75
2023-04-16T23:40:06.708Z,100004.81
2023-04-16T23:43:09.383Z,100007.63
2023-04-16T23:46:12.990Z,100002.97
2023-04-16T23:49:15.655Z,99999.72
2023-04-16T23:52:18.424Z,99998.94
2023-04-16T23:55:21.126Z,99997.47
2023-04-16T23:58:24.358Z,99999.88
